createdAt,value
2016-07-26T00:00:15.206Z,71.58
2016-07-26T00:01:13.614Z,71.71
2016-07-26T00:02:37.873Z,71.54
2016-07-26T00:03:39.294Z,71.60
2016-07-26T00:04:30.789Z,71.37
2016-07-26T00:05:14.273Z,71.42
2016-07-26T00:06:16.153Z,71.40
2016-07-26T00:07:15.090Z,71.34
2016-07-26T00:08:39.424Z,71.58
2016-07-26T00:09:34.044Z,71.33
2016-07-26T00:10:29.875Z,71.40
2016-07-26T00:11:27.473Z,71.33
2016-07-26T00:12:14.693Z,71.41
2016-07-26T00:13:13.874Z,71.41
2016-07-26T00:14:15.345Z,71.39
2016-07-26T00:15:17.978Z,71.24
2016-07-26T00:16:31.471Z,71.48
2016-07-26T00:17:41.854Z,71.42
2016-07-26T00:18:13.407Z,71.51
2016-07-26T00:19:22.786Z,71.58
2016-07-26T00:20:13.723Z,71.41
2016-07-26T00:21:39.915Z,71.41
2016-07-26T00:22:12.771Z,71.46
2016-07-26T00:23:41.084Z,71.39
2016-07-26T00:24:14.265Z,71.40
2016-07-26T00:25:39.074Z,71.54
2016-07-26T00:26:13.840Z,71.34
2016-07-26T00:27:37.912Z,71.37
2016-07-26T00:28:12.070Z,71.54
2016-07-26T00:29:20.968Z,71.49
2016-07-26T00:30:18.071Z,71.45
2016-07-26T00:31:44.473Z,71.48
2016-07-26T00:32:33.664Z,71.70
2016-07-26T00:34:14.539Z,71.64
2016-07-26T00:35:12.862Z,71.34
2016-07-26T00:36:12.890Z,71.46
2016-07-26T00:37:17.936Z,71.36
2016-07-26T00:38:21.702Z,71.26
2016-07-26T00:39:35.283Z,71.36
2016-07-26T00:40:13.601Z,71.36
2016-07-26T00:41:40.005Z,71.49
2016-07-26T00:42:25.611Z,71.51
2016-07-26T00:43:21.002Z,71.49
2016-07-26T00:44:13.952Z,71.44
2016-07-26T00:45:12.591Z,71.43
2016-07-26T00:46:30.644Z,71.40
2016-07-26T00:47:23.926Z,71.43
2016-07-26T00:48:11.751Z,71.42
2016-07-26T00:49:36.964Z,70.28
2016-07-26T00:50:39.280Z,70.33
2016-07-26T00:51:31.175Z,69.96
2016-07-26T00:52:37.930Z,69.92
2016-07-26T00:53:14.699Z,69.82
2016-07-26T00:54:26.050Z,70.17
2016-07-26T00:55:27.636Z,71.06
2016-07-26T00:56:22.676Z,71.24
2016-07-26T00:57:44.261Z,71.39
2016-07-26T00:58:29.248Z,71.35
2016-07-26T00:59:43.038Z,71.57
2016-07-26T01:00:12.321Z,71.50
2016-07-26T01:01:15.625Z,71.47
2016-07-26T01:02:39.332Z,70.51
2016-07-26T01:03:24.029Z,70.25
2016-07-26T01:04:11.980Z,70.45
2016-07-26T01:05:13.616Z,71.16
2016-07-26T01:06:12.844Z,71.34
2016-07-26T01:07:26.961Z,71.53
2016-07-26T01:08:45.064Z,71.43
2016-07-26T01:09:17.830Z,71.47
2016-07-26T01:10:27.118Z,71.43
2016-07-26T01:11:28.868Z,71.45
2016-07-26T01:12:14.085Z,71.45
2016-07-26T01:13:13.353Z,71.47
2016-07-26T01:14:14.060Z,71.50
2016-07-26T01:15:25.599Z,71.56
2016-07-26T01:16:28.027Z,71.59
2016-07-26T01:17:16.439Z,71.47
2016-07-26T01:18:12.760Z,71.53
2016-07-26T01:19:32.008Z,71.47
2016-07-26T01:20:17.078Z,71.50
2016-07-26T01:21:30.537Z,71.63
2016-07-26T01:22:16.592Z,71.48
2016-07-26T01:23:15.739Z,71.52
2016-07-26T01:24:39.261Z,71.53
2016-07-26T01:25:19.370Z,71.49
2016-07-26T01:26:27.677Z,71.52
2016-07-26T01:27:13.538Z,71.62
2016-07-26T01:28:14.185Z,71.45
2016-07-26T01:29:13.192Z,71.49
2016-07-26T01:30:35.619Z,71.54
2016-07-26T01:31:14.671Z,71.48
2016-07-26T01:32:23.120Z,71.43
2016-07-26T01:33:11.488Z,71.42
2016-07-26T01:34:11.948Z,71.42
2016-07-26T01:35:34.038Z,71.52
2016-07-26T01:36:33.392Z,71.52
2016-07-26T01:37:14.231Z,71.43
2016-07-26T01:38:12.458Z,71.41
2016-07-26T01:39:21.883Z,71.49
2016-07-26T01:40:17.490Z,71.55
2016-07-26T01:41:15.320Z,71.51
2016-07-26T01:42:22.566Z,71.47
2016-07-26T01:43:14.318Z,71.42
2016-07-26T01:44:14.467Z,71.46
2016-07-26T01:45:13.778Z,71.52
2016-07-26T01:46:43.972Z,71.43
2016-07-26T01:47:11.681Z,71.54
2016-07-26T01:48:21.651Z,71.57
2016-07-26T01:49:14.038Z,71.53
2016-07-26T01:50:12.648Z,71.61
2016-07-26T01:51:28.473Z,71.52
2016-07-26T01:52:19.170Z,71.61
2016-07-26T01:53:15.736Z,71.51
2016-07-26T01:54:13.643Z,71.61
2016-07-26T01:55:14.044Z,71.51
2016-07-26T01:56:27.705Z,71.54
2016-07-26T01:57:18.721Z,71.61
2016-07-26T01:58:15.854Z,71.49
2016-07-26T01:59:17.896Z,71.53
2016-07-26T02:00:18.069Z,71.44
2016-07-26T02:01:12.984Z,71.47
2016-07-26T02:02:17.172Z,71.46
2016-07-26T02:03:15.761Z,71.49
2016-07-26T02:04:17.785Z,71.53
2016-07-26T02:05:14.394Z,71.56
2016-07-26T02:06:17.531Z,71.57
2016-07-26T02:07:11.951Z,71.62
2016-07-26T02:08:13.364Z,71.65
2016-07-26T02:09:34.989Z,71.64
2016-07-26T02:10:33.032Z,71.54
2016-07-26T02:11:22.668Z,71.50
2016-07-26T02:12:23.043Z,71.44
2016-07-26T02:13:26.094Z,71.48
2016-07-26T02:14:37.683Z,71.47
2016-07-26T02:15:14.857Z,71.53
2016-07-26T02:16:14.854Z,71.44
2016-07-26T02:17:13.166Z,71.48
2016-07-26T02:18:33.687Z,71.48
2016-07-26T02:19:14.787Z,71.50
2016-07-26T02:20:28.418Z,71.30
2016-07-26T02:21:13.291Z,70.31
2016-07-26T02:22:12.371Z,70.37
2016-07-26T02:23:22.562Z,71.20
2016-07-26T02:24:16.753Z,71.37
2016-07-26T02:25:16.374Z,71.42
2016-07-26T02:26:12.579Z,71.41
2016-07-26T02:27:14.276Z,71.44
2016-07-26T02:28:12.068Z,71.41
2016-07-26T02:29:26.861Z,70.32
2016-07-26T02:30:19.710Z,70.16
2016-07-26T02:31:28.408Z,71.02
2016-07-26T02:32:20.789Z,71.29
2016-07-26T02:33:31.852Z,71.27
2016-07-26T02:34:14.603Z,71.40
2016-07-26T02:35:14.300Z,71.44
2016-07-26T02:36:13.901Z,71.40
2016-07-26T02:37:14.787Z,71.39
2016-07-26T02:38:13.127Z,71.38
2016-07-26T02:39:22.409Z,71.37
2016-07-26T02:40:33.718Z,71.34
2016-07-26T02:41:12.867Z,71.42
2016-07-26T02:42:34.132Z,71.43
2016-07-26T02:43:31.630Z,71.49
2016-07-26T02:44:31.741Z,71.38
2016-07-26T02:45:15.038Z,71.37
2016-07-26T02:46:42.042Z,71.41
2016-07-26T02:47:15.844Z,71.37
2016-07-26T02:48:35.969Z,71.35
2016-07-26T02:49:13.605Z,71.34
2016-07-26T02:50:28.252Z,71.35
2016-07-26T02:51:27.261Z,71.30
2016-07-26T02:52:14.163Z,71.31
2016-07-26T02:53:24.628Z,71.28
2016-07-26T02:54:27.532Z,71.23
2016-07-26T02:55:19.997Z,71.25
2016-07-26T02:56:12.905Z,71.19
2016-07-26T02:57:12.376Z,71.20
2016-07-26T02:58:13.325Z,70.09
2016-07-26T02:59:28.655Z,69.81
2016-07-26T03:00:16.352Z,69.70
2016-07-26T03:01:13.939Z,69.70
2016-07-26T03:02:11.896Z,69.60
2016-07-26T03:03:12.004Z,69.56
2016-07-26T03:05:23.593Z,70.65
2016-07-26T03:06:13.170Z,70.96
2016-07-26T03:07:11.193Z,70.95
2016-07-26T03:08:38.674Z,69.89
2016-07-26T03:09:14.668Z,69.71
2016-07-26T03:10:27.664Z,69.59
2016-07-26T03:11:21.814Z,70.63
2016-07-26T03:12:27.994Z,70.86
2016-07-26T03:13:28.175Z,71.01
2016-07-26T03:14:37.610Z,71.02
2016-07-26T03:15:27.937Z,71.06
2016-07-26T03:16:18.513Z,71.10
2016-07-26T03:17:15.324Z,70.82
2016-07-26T03:18:16.019Z,69.97
2016-07-26T03:20:26.999Z,70.74
2016-07-26T03:21:17.707Z,70.90
2016-07-26T03:22:33.273Z,70.93
2016-07-26T03:23:13.595Z,71.02
2016-07-26T03:24:17.650Z,71.10
2016-07-26T03:25:34.530Z,71.00
2016-07-26T03:26:42.787Z,71.03
2016-07-26T03:27:33.880Z,71.07
2016-07-26T03:28:23.115Z,70.99
2016-07-26T03:29:15.879Z,71.00
2016-07-26T03:30:32.981Z,70.98
2016-07-26T03:31:33.132Z,71.02
2016-07-26T03:32:25.056Z,71.02
2016-07-26T03:33:14.432Z,71.00
2016-07-26T03:35:39.460Z,70.02
2016-07-26T03:36:14.188Z,69.84
2016-07-26T03:37:14.735Z,69.77
2016-07-26T03:38:25.041Z,70.78
2016-07-26T03:39:18.859Z,70.94
2016-07-26T03:40:28.402Z,71.01
2016-07-26T03:41:34.133Z,71.11
2016-07-26T03:42:12.224Z,71.07
2016-07-26T03:43:12.708Z,71.06
2016-07-26T03:44:15.585Z,71.08
2016-07-26T03:45:17.042Z,71.11
2016-07-26T03:46:52.133Z,71.13
2016-07-26T03:47:42.198Z,71.12
2016-07-26T03:48:39.999Z,71.09
2016-07-26T03:49:42.926Z,71.23
2016-07-26T03:50:32.506Z,71.17
2016-07-26T03:51:21.326Z,71.23
2016-07-26T03:52:13.143Z,71.18
2016-07-26T03:53:13.235Z,71.21
2016-07-26T03:54:28.795Z,71.18
2016-07-26T03:55:33.844Z,71.19
2016-07-26T03:56:14.222Z,71.18
2016-07-26T03:57:17.521Z,71.16
2016-07-26T03:58:37.375Z,71.01
2016-07-26T03:59:11.439Z,70.07
2016-07-26T04:00:30.300Z,69.82
2016-07-26T04:01:20.052Z,70.04
2016-07-26T04:02:15.580Z,70.79
2016-07-26T04:03:33.769Z,70.97
2016-07-26T04:05:28.260Z,71.04
2016-07-26T04:06:14.535Z,71.08
2016-07-26T04:07:20.270Z,71.10
2016-07-26T04:08:13.241Z,71.13
2016-07-26T04:09:12.269Z,71.12
2016-07-26T04:10:24.239Z,71.08
2016-07-26T04:11:31.288Z,71.11
2016-07-26T04:12:23.047Z,71.18
2016-07-26T04:13:23.369Z,71.12
2016-07-26T04:14:21.875Z,71.18
2016-07-26T04:15:12.935Z,71.15
2016-07-26T04:16:14.237Z,71.20
2016-07-26T04:17:43.570Z,71.17
2016-07-26T04:18:13.310Z,71.14
2016-07-26T04:19:32.759Z,71.16
2016-07-26T04:20:43.962Z,71.20
2016-07-26T04:21:23.618Z,71.17
2016-07-26T04:22:14.317Z,71.20
2016-07-26T04:23:37.475Z,71.24
2016-07-26T04:24:19.872Z,71.19
2016-07-26T04:25:15.539Z,71.29
2016-07-26T04:26:14.403Z,71.28
2016-07-26T04:27:13.606Z,71.26
2016-07-26T04:28:14.488Z,71.30
2016-07-26T04:29:13.576Z,71.35
2016-07-26T04:30:14.681Z,71.30
2016-07-26T04:31:14.088Z,71.30
2016-07-26T04:32:12.246Z,71.33
2016-07-26T04:33:13.764Z,71.33
2016-07-26T04:34:32.735Z,71.32
2016-07-26T04:35:24.828Z,71.34
2016-07-26T04:36:26.831Z,71.36
2016-07-26T04:37:41.227Z,71.38
2016-07-26T04:38:33.011Z,71.32
2016-07-26T04:39:27.497Z,71.36
2016-07-26T04:40:14.357Z,71.31
2016-07-26T04:41:32.609Z,71.31
2016-07-26T04:42:12.844Z,71.29
2016-07-26T04:43:20.774Z,71.27
2016-07-26T04:44:13.170Z,71.24
2016-07-26T04:45:14.442Z,71.26
2016-07-26T04:46:12.262Z,71.26
2016-07-26T04:47:17.082Z,71.23
2016-07-26T04:48:39.262Z,71.27
2016-07-26T04:49:38.042Z,71.34
2016-07-26T04:50:14.621Z,71.32
2016-07-26T04:51:21.062Z,71.28
2016-07-26T04:52:12.940Z,71.32
2016-07-26T04:53:33.695Z,71.33
2016-07-26T04:54:26.803Z,71.34
2016-07-26T04:55:33.395Z,71.35
2016-07-26T04:56:33.842Z,71.30
2016-07-26T04:57:15.766Z,71.43
2016-07-26T04:58:16.710Z,71.43
2016-07-26T04:59:13.913Z,71.46
2016-07-26T05:00:13.744Z,71.47
2016-07-26T05:01:20.151Z,71.41
2016-07-26T05:02:25.671Z,71.44
2016-07-26T05:03:16.890Z,71.45
2016-07-26T05:04:36.579Z,70.33
2016-07-26T05:05:17.965Z,70.20
2016-07-26T05:06:17.246Z,70.08
2016-07-26T05:07:22.766Z,69.98
2016-07-26T05:08:13.203Z,69.95
2016-07-26T05:09:19.090Z,69.96
2016-07-26T05:10:15.142Z,69.97
2016-07-26T05:11:38.742Z,69.93
2016-07-26T05:12:17.646Z,69.99
2016-07-26T05:13:19.018Z,70.32
2016-07-26T05:14:31.673Z,71.13
2016-07-26T05:15:26.497Z,71.44
2016-07-26T05:16:18.746Z,71.51
2016-07-26T05:17:27.260Z,71.57
2016-07-26T05:18:14.301Z,71.63
2016-07-26T05:20:37.365Z,71.72
2016-07-26T05:21:26.716Z,71.72
2016-07-26T05:22:14.119Z,71.73
2016-07-26T05:23:16.099Z,71.81
2016-07-26T05:24:36.717Z,71.81
2016-07-26T05:25:14.899Z,71.76
2016-07-26T05:26:19.653Z,71.77
2016-07-26T05:27:13.739Z,71.82
2016-07-26T05:28:12.806Z,71.85
2016-07-26T05:29:13.638Z,71.85
2016-07-26T05:30:13.671Z,71.82
2016-07-26T05:31:15.434Z,71.83
2016-07-26T05:32:38.382Z,71.86
2016-07-26T05:33:14.054Z,71.84
2016-07-26T05:34:15.488Z,71.84
2016-07-26T05:35:28.220Z,71.82
2016-07-26T05:36:16.371Z,71.85
2016-07-26T05:37:33.843Z,71.91
2016-07-26T05:38:33.205Z,71.96
2016-07-26T05:39:22.283Z,71.93
2016-07-26T05:40:20.774Z,71.94
2016-07-26T05:41:14.026Z,71.93
2016-07-26T05:42:23.035Z,71.99
2016-07-26T05:43:19.819Z,72.01
2016-07-26T05:44:13.739Z,72.00
2016-07-26T05:45:41.213Z,71.99
2016-07-26T05:46:20.273Z,72.05
2016-07-26T05:47:16.106Z,72.10
2016-07-26T05:48:30.281Z,72.06
2016-07-26T05:50:16.358Z,71.95
2016-07-26T05:51:15.156Z,72.03
2016-07-26T05:52:22.641Z,72.05
2016-07-26T05:53:13.314Z,72.11
2016-07-26T05:54:17.403Z,72.13
2016-07-26T05:55:12.750Z,72.09
2016-07-26T05:56:18.276Z,72.07
2016-07-26T05:57:31.244Z,72.06
2016-07-26T05:58:18.277Z,72.05
2016-07-26T05:59:14.603Z,72.02
2016-07-26T06:00:24.759Z,72.02
2016-07-26T06:01:37.992Z,71.99
2016-07-26T06:02:19.184Z,72.04
2016-07-26T06:03:33.289Z,72.08
2016-07-26T06:04:37.902Z,72.12
2016-07-26T06:05:16.394Z,72.02
2016-07-26T06:06:27.278Z,72.05
2016-07-26T06:07:36.647Z,72.03
2016-07-26T06:08:33.536Z,72.06
2016-07-26T06:09:11.033Z,72.07
2016-07-26T06:10:35.438Z,71.99
2016-07-26T06:11:14.285Z,71.98
2016-07-26T06:12:14.510Z,71.96
2016-07-26T06:13:38.692Z,71.93
2016-07-26T06:14:16.095Z,71.98
2016-07-26T06:15:12.841Z,71.96
2016-07-26T06:16:23.107Z,71.93
2016-07-26T06:17:27.010Z,71.90
2016-07-26T06:18:37.210Z,71.89
2016-07-26T06:19:48.761Z,71.85
2016-07-26T06:20:21.387Z,71.84
2016-07-26T06:21:23.768Z,71.84
2016-07-26T06:22:26.357Z,71.83
2016-07-26T06:23:16.807Z,71.81
2016-07-26T06:24:11.847Z,71.78
2016-07-26T06:25:24.895Z,70.72
2016-07-26T06:26:17.555Z,71.26
2016-07-26T06:27:14.628Z,71.29
2016-07-26T06:28:48.129Z,71.34
2016-07-26T06:29:17.414Z,71.54
2016-07-26T06:30:15.096Z,71.79
2016-07-26T06:31:14.534Z,70.67
2016-07-26T06:32:19.610Z,70.45
2016-07-26T06:33:27.275Z,70.37
2016-07-26T06:34:15.059Z,70.22
2016-07-26T06:35:23.560Z,70.22
2016-07-26T06:36:15.005Z,70.25
2016-07-26T06:37:13.723Z,70.33
2016-07-26T06:38:36.939Z,71.44
2016-07-26T06:39:33.663Z,71.76
2016-07-26T06:40:12.696Z,71.91
2016-07-26T06:41:32.237Z,72.04
2016-07-26T06:42:17.340Z,72.25
2016-07-26T06:43:22.006Z,72.22
2016-07-26T06:44:39.072Z,71.19
2016-07-26T06:45:22.694Z,70.96
2016-07-26T06:46:32.766Z,71.92
2016-07-26T06:47:14.347Z,71.96
2016-07-26T06:48:13.975Z,71.93
2016-07-26T06:49:45.201Z,72.02
2016-07-26T06:50:30.610Z,71.88
2016-07-26T06:51:12.299Z,71.96
2016-07-26T06:52:13.684Z,71.24
2016-07-26T06:53:13.678Z,71.88
2016-07-26T06:54:12.800Z,71.99
2016-07-26T06:55:16.168Z,72.09
2016-07-26T06:56:36.218Z,72.01
2016-07-26T06:57:30.158Z,72.06
2016-07-26T06:58:24.633Z,72.00
2016-07-26T06:59:28.805Z,71.96
2016-07-26T07:00:40.007Z,71.91
2016-07-26T07:01:13.185Z,71.87
2016-07-26T07:02:36.622Z,72.01
2016-07-26T07:03:32.104Z,71.99
2016-07-26T07:04:42.737Z,71.92
2016-07-26T07:05:38.414Z,71.88
2016-07-26T07:06:26.183Z,71.65
2016-07-26T07:07:34.034Z,71.59
2016-07-26T07:08:26.532Z,71.70
2016-07-26T07:09:32.788Z,71.81
2016-07-26T07:10:13.504Z,71.78
2016-07-26T07:11:14.269Z,71.60
2016-07-26T07:12:12.414Z,71.49
2016-07-26T07:13:42.545Z,71.41
2016-07-26T07:14:15.212Z,71.46
2016-07-26T07:15:28.972Z,71.32
2016-07-26T07:16:20.551Z,71.33
2016-07-26T07:17:12.601Z,71.31
2016-07-26T07:18:19.155Z,72.04
2016-07-26T07:20:25.094Z,72.57
2016-07-26T07:21:26.267Z,72.79
2016-07-26T07:22:12.939Z,71.79
2016-07-26T07:23:24.503Z,71.53
2016-07-26T07:24:20.004Z,72.00
2016-07-26T07:25:33.451Z,72.31
2016-07-26T07:26:38.479Z,72.07
2016-07-26T07:27:28.254Z,72.23
2016-07-26T07:28:38.296Z,71.82
2016-07-26T07:29:12.405Z,71.78
2016-07-26T07:30:13.810Z,72.01
2016-07-26T07:31:27.733Z,72.02
2016-07-26T07:32:11.755Z,71.81
2016-07-26T07:33:41.518Z,70.87
2016-07-26T07:34:32.368Z,70.84
2016-07-26T07:35:38.549Z,71.56
2016-07-26T07:36:13.321Z,71.61
2016-07-26T07:37:29.539Z,71.70
2016-07-26T07:38:13.138Z,71.71
2016-07-26T07:39:10.178Z,71.78
2016-07-26T07:40:21.653Z,70.60
2016-07-26T07:41:33.620Z,70.36
2016-07-26T07:42:13.704Z,70.60
2016-07-26T07:43:38.585Z,71.30
2016-07-26T07:44:20.258Z,71.45
2016-07-26T07:45:13.362Z,71.50
2016-07-26T07:46:43.056Z,71.64
2016-07-26T07:47:13.097Z,71.68
2016-07-26T07:48:12.375Z,71.66
2016-07-26T07:49:13.943Z,71.58
2016-07-26T07:50:25.460Z,71.68
2016-07-26T07:51:27.115Z,71.67
2016-07-26T07:52:13.528Z,71.49
2016-07-26T07:53:12.587Z,70.46
2016-07-26T07:54:15.138Z,70.33
2016-07-26T07:55:12.241Z,70.19
2016-07-26T07:56:14.149Z,70.06
2016-07-26T07:57:12.862Z,70.01
2016-07-26T07:58:13.712Z,69.94
2016-07-26T07:59:13.967Z,70.16
2016-07-26T08:00:14.987Z,71.04
2016-07-26T08:01:44.280Z,71.15
2016-07-26T08:02:38.505Z,71.05
2016-07-26T08:03:37.493Z,71.22
2016-07-26T08:04:30.321Z,71.32
2016-07-26T08:05:38.278Z,71.20
2016-07-26T08:06:37.535Z,71.88
2016-07-26T08:07:20.896Z,71.59
2016-07-26T08:08:14.585Z,71.47
2016-07-26T08:09:14.574Z,71.12
2016-07-26T08:10:10.772Z,71.34
2016-07-26T08:11:15.579Z,71.27
2016-07-26T08:12:14.435Z,71.30
2016-07-26T08:13:13.385Z,71.23
2016-07-26T08:14:15.767Z,71.20
2016-07-26T08:15:33.903Z,70.37
2016-07-26T08:16:33.833Z,70.92
2016-07-26T08:17:37.078Z,71.03
2016-07-26T08:18:37.430Z,71.00
2016-07-26T08:20:17.083Z,72.03
2016-07-26T08:21:16.184Z,71.37
2016-07-26T08:22:17.913Z,71.61
2016-07-26T08:23:15.484Z,71.59
2016-07-26T08:24:17.943Z,71.26
2016-07-26T08:25:15.359Z,71.19
2016-07-26T08:26:16.233Z,71.32
2016-07-26T08:27:16.161Z,71.35
2016-07-26T08:28:15.420Z,71.36
2016-07-26T08:29:17.045Z,71.73
2016-07-26T08:30:16.068Z,71.22
2016-07-26T08:31:16.207Z,71.34
2016-07-26T08:32:16.348Z,72.00
2016-07-26T08:33:15.711Z,71.72
2016-07-26T08:35:16.314Z,71.31
2016-07-26T08:36:15.752Z,71.58
2016-07-26T08:37:16.594Z,71.64
2016-07-26T08:38:15.968Z,71.75
2016-07-26T08:39:15.725Z,71.53
2016-07-26T08:40:16.188Z,71.75
2016-07-26T08:41:16.293Z,71.62
2016-07-26T08:42:18.174Z,70.72
2016-07-26T08:43:16.423Z,70.28
2016-07-26T08:44:18.452Z,70.35
2016-07-26T08:45:16.357Z,70.09
2016-07-26T08:46:16.339Z,69.93
2016-07-26T08:47:15.988Z,69.74
2016-07-26T08:48:16.451Z,69.71
2016-07-26T08:49:13.588Z,69.75
2016-07-26T08:50:16.348Z,70.02
2016-07-26T08:51:13.741Z,70.91
2016-07-26T08:52:13.622Z,70.93
2016-07-26T08:53:18.627Z,71.26
2016-07-26T08:54:13.244Z,71.06
2016-07-26T08:55:13.077Z,70.43
2016-07-26T08:56:13.578Z,70.77
2016-07-26T08:57:13.651Z,70.77
2016-07-26T08:58:12.721Z,70.99
2016-07-26T08:59:16.843Z,71.04
2016-07-26T09:00:15.216Z,70.88
2016-07-26T09:01:13.242Z,70.94
2016-07-26T09:02:12.329Z,70.76
2016-07-26T09:03:14.425Z,70.65
2016-07-26T09:04:13.421Z,70.39
2016-07-26T09:05:13.127Z,70.45
2016-07-26T09:06:13.295Z,70.50
2016-07-26T09:07:13.812Z,70.91
2016-07-26T09:08:13.356Z,70.72
2016-07-26T09:09:13.465Z,70.65
2016-07-26T09:10:26.942Z,70.93
2016-07-26T09:11:11.057Z,70.90
2016-07-26T09:12:19.635Z,70.90
2016-07-26T09:13:32.462Z,71.00
2016-07-26T09:14:26.552Z,70.91
2016-07-26T09:15:22.083Z,70.88
2016-07-26T09:16:13.628Z,70.79
2016-07-26T09:17:12.776Z,70.86
2016-07-26T09:18:19.066Z,70.87
2016-07-26T09:19:13.124Z,70.81
2016-07-26T09:20:19.951Z,70.84
2016-07-26T09:21:25.251Z,70.78
2016-07-26T09:22:15.884Z,70.83
2016-07-26T09:23:15.010Z,70.70
2016-07-26T09:24:13.227Z,70.37
2016-07-26T09:25:34.513Z,69.97
2016-07-26T09:26:20.793Z,69.51
2016-07-26T09:27:24.437Z,69.61
2016-07-26T09:28:16.535Z,69.57
2016-07-26T09:29:14.290Z,69.79
2016-07-26T09:30:14.320Z,69.67
2016-07-26T09:31:18.174Z,69.56
2016-07-26T09:32:12.260Z,69.65
2016-07-26T09:33:12.442Z,70.44
2016-07-26T09:34:14.308Z,70.59
2016-07-26T09:35:21.970Z,70.35
2016-07-26T09:36:17.498Z,69.78
2016-07-26T09:37:28.306Z,70.29
2016-07-26T09:38:13.282Z,70.19
2016-07-26T09:39:19.027Z,70.29
2016-07-26T09:40:14.404Z,70.27
2016-07-26T09:41:25.275Z,70.25
2016-07-26T09:42:15.888Z,70.26
2016-07-26T09:43:32.077Z,70.18
2016-07-26T09:44:37.790Z,70.14
2016-07-26T09:45:19.945Z,70.04
2016-07-26T09:46:34.629Z,70.00
2016-07-26T09:47:14.818Z,69.84
2016-07-26T09:48:17.048Z,69.96
2016-07-26T09:49:15.729Z,70.02
2016-07-26T09:50:17.021Z,70.19
2016-07-26T09:51:14.084Z,70.25
2016-07-26T09:52:15.101Z,70.87
2016-07-26T09:53:15.364Z,71.11
2016-07-26T09:54:15.833Z,71.18
2016-07-26T09:55:16.552Z,71.28
2016-07-26T09:56:16.698Z,71.25
2016-07-26T09:57:15.886Z,71.58
2016-07-26T09:58:15.623Z,71.82
2016-07-26T09:59:15.912Z,71.75
2016-07-26T10:00:16.246Z,71.98
2016-07-26T10:01:18.104Z,72.13
2016-07-26T10:02:15.755Z,72.49
2016-07-26T10:03:16.664Z,72.55
2016-07-26T10:04:16.054Z,72.40
2016-07-26T10:05:16.307Z,72.74
2016-07-26T10:06:15.560Z,72.74
2016-07-26T10:07:15.635Z,72.70
2016-07-26T10:08:15.924Z,73.01
2016-07-26T10:09:14.979Z,72.89
2016-07-26T10:10:15.307Z,73.38
2016-07-26T10:11:16.236Z,73.26
2016-07-26T10:12:15.769Z,73.16
2016-07-26T10:13:16.540Z,73.44
2016-07-26T10:14:15.971Z,73.50
2016-07-26T10:15:16.279Z,73.70
2016-07-26T10:16:15.653Z,73.96
2016-07-26T10:17:16.725Z,74.15
2016-07-26T10:18:16.568Z,74.49
2016-07-26T10:19:15.944Z,74.49
2016-07-26T10:20:16.228Z,74.48
2016-07-26T10:21:15.706Z,74.42
2016-07-26T10:22:16.410Z,74.37
2016-07-26T10:23:17.737Z,74.38
2016-07-26T10:24:16.583Z,74.65
2016-07-26T10:25:16.678Z,74.80
2016-07-26T10:26:18.355Z,74.74
2016-07-26T10:27:16.566Z,74.35
2016-07-26T10:28:15.978Z,73.73
2016-07-26T10:29:16.022Z,74.35
2016-07-26T10:30:16.739Z,74.31
2016-07-26T10:31:15.451Z,74.52
2016-07-26T10:32:16.234Z,74.42
2016-07-26T10:33:15.632Z,74.66
2016-07-26T10:34:16.314Z,74.45
2016-07-26T10:35:16.575Z,74.11
2016-07-26T10:36:15.982Z,73.80
2016-07-26T10:37:16.307Z,73.69
2016-07-26T10:38:15.622Z,73.52
2016-07-26T10:39:17.312Z,73.41
2016-07-26T10:40:15.711Z,73.44
2016-07-26T10:41:15.825Z,73.04
2016-07-26T10:42:15.588Z,73.05
2016-07-26T10:43:15.608Z,72.88
2016-07-26T10:44:16.339Z,72.56
2016-07-26T10:45:15.641Z,71.70
2016-07-26T10:46:15.445Z,71.56
2016-07-26T10:47:16.452Z,71.11
2016-07-26T10:48:17.470Z,71.23
2016-07-26T10:49:15.714Z,71.23
2016-07-26T10:50:16.080Z,70.73
2016-07-26T10:51:16.237Z,70.77
2016-07-26T10:52:16.138Z,70.57
2016-07-26T10:53:17.614Z,70.31
2016-07-26T10:54:16.983Z,70.61
2016-07-26T10:55:15.845Z,70.80
2016-07-26T10:56:16.036Z,70.95
2016-07-26T10:57:17.207Z,70.77
2016-07-26T10:58:15.757Z,71.23
2016-07-26T10:59:16.044Z,71.82
2016-07-26T11:00:15.784Z,72.03
2016-07-26T11:01:15.622Z,72.30
2016-07-26T11:02:15.526Z,72.13
2016-07-26T11:03:18.518Z,72.16
2016-07-26T11:04:16.137Z,72.16
2016-07-26T11:05:16.147Z,71.97
2016-07-26T11:06:15.920Z,71.76
2016-07-26T11:07:13.813Z,71.52
2016-07-26T11:08:17.239Z,71.30
2016-07-26T11:09:15.899Z,71.26
2016-07-26T11:10:16.250Z,71.12
2016-07-26T11:11:15.711Z,71.19
2016-07-26T11:12:14.967Z,72.44
2016-07-26T11:13:16.504Z,72.46
2016-07-26T11:14:16.137Z,71.97
2016-07-26T11:15:17.873Z,71.94
2016-07-26T11:16:15.826Z,71.65
2016-07-26T11:17:16.030Z,71.71
2016-07-26T11:18:17.274Z,71.47
2016-07-26T11:19:15.540Z,71.37
2016-07-26T11:21:13.213Z,71.71
2016-07-26T11:22:15.426Z,72.19
2016-07-26T11:23:15.910Z,72.14
2016-07-26T11:24:15.372Z,71.96
2016-07-26T11:25:15.674Z,72.32
2016-07-26T11:26:17.087Z,72.12
2016-07-26T11:27:15.070Z,72.25
2016-07-26T11:28:18.302Z,72.06
2016-07-26T11:29:18.727Z,71.98
2016-07-26T11:30:16.310Z,71.84
2016-07-26T11:31:18.599Z,71.73
2016-07-26T11:32:20.060Z,71.73
2016-07-26T11:33:15.431Z,71.62
2016-07-26T11:34:17.037Z,71.48
2016-07-26T11:35:16.250Z,71.60
2016-07-26T11:36:15.432Z,71.51
2016-07-26T11:38:18.032Z,70.95
2016-07-26T11:39:15.679Z,70.90
2016-07-26T11:40:17.005Z,70.71
2016-07-26T11:41:16.958Z,70.76
2016-07-26T11:42:17.875Z,70.56
2016-07-26T11:43:17.286Z,70.35
2016-07-26T11:44:16.385Z,70.32
2016-07-26T11:45:16.467Z,69.82
2016-07-26T11:46:16.822Z,69.80
2016-07-26T11:47:19.377Z,69.98
2016-07-26T11:48:15.729Z,70.06
2016-07-26T11:50:16.185Z,70.27
2016-07-26T11:51:17.336Z,70.08
2016-07-26T11:52:16.235Z,70.25
2016-07-26T11:53:16.311Z,70.33
2016-07-26T11:54:16.531Z,70.39
2016-07-26T11:55:16.281Z,70.20
2016-07-26T11:56:22.653Z,69.95
2016-07-26T11:57:16.733Z,70.22
2016-07-26T11:58:16.894Z,69.99
2016-07-26T11:59:16.103Z,70.19
2016-07-26T12:00:16.274Z,70.21
2016-07-26T12:01:16.099Z,70.52
2016-07-26T12:02:15.499Z,70.60
2016-07-26T12:03:21.280Z,70.78
2016-07-26T12:05:16.706Z,70.90
2016-07-26T12:06:16.785Z,70.71
2016-07-26T12:07:17.029Z,70.85
2016-07-26T12:08:14.067Z,70.91
2016-07-26T12:09:17.964Z,71.29
2016-07-26T12:10:15.810Z,71.22
2016-07-26T12:11:17.338Z,70.74
2016-07-26T12:12:16.683Z,71.30
2016-07-26T12:13:19.721Z,70.84
2016-07-26T12:14:17.227Z,70.71
2016-07-26T12:15:16.552Z,70.71
2016-07-26T12:16:17.558Z,70.84
2016-07-26T12:17:14.347Z,70.92
2016-07-26T12:18:23.198Z,71.63
2016-07-26T12:19:16.083Z,72.82
2016-07-26T12:20:17.567Z,73.36
2016-07-26T12:21:14.427Z,73.33
2016-07-26T12:22:16.221Z,74.11
2016-07-26T12:23:17.097Z,74.62
2016-07-26T12:24:16.447Z,75.17
2016-07-26T12:25:16.533Z,75.85
2016-07-26T12:26:18.028Z,77.52
2016-07-26T12:27:13.977Z,79.16
2016-07-26T12:28:15.944Z,77.70
2016-07-26T12:29:17.751Z,78.47
2016-07-26T12:30:17.134Z,78.65
2016-07-26T12:31:19.304Z,77.54
2016-07-26T12:32:16.992Z,76.53
2016-07-26T12:33:16.080Z,76.12
2016-07-26T12:34:15.848Z,75.74
2016-07-26T12:35:17.923Z,74.68
2016-07-26T12:36:15.440Z,74.27
2016-07-26T12:37:14.232Z,73.79
2016-07-26T12:38:16.896Z,73.79
2016-07-26T12:39:19.396Z,73.81
2016-07-26T12:40:14.023Z,73.74
2016-07-26T12:41:16.780Z,73.92
2016-07-26T12:42:16.859Z,73.64
2016-07-26T12:43:18.293Z,73.52
2016-07-26T12:44:14.103Z,73.17
2016-07-26T12:45:16.613Z,73.06
2016-07-26T12:46:16.269Z,73.12
2016-07-26T12:47:16.010Z,72.84
2016-07-26T12:48:14.968Z,72.63
2016-07-26T12:49:16.756Z,72.23
2016-07-26T12:50:16.416Z,72.66
2016-07-26T12:51:17.557Z,72.02
2016-07-26T12:52:14.538Z,72.11
2016-07-26T12:53:16.627Z,72.71
2016-07-26T12:54:17.147Z,72.93
2016-07-26T12:55:16.175Z,72.83
2016-07-26T12:56:16.230Z,72.77
2016-07-26T12:57:16.696Z,73.64
2016-07-26T12:58:16.774Z,73.45
2016-07-26T12:59:14.527Z,74.28
2016-07-26T13:00:15.873Z,73.61
2016-07-26T13:01:14.143Z,72.17
2016-07-26T13:02:18.361Z,72.77
2016-07-26T13:03:17.394Z,73.02
2016-07-26T13:05:16.555Z,72.72
2016-07-26T13:06:18.041Z,72.80
2016-07-26T13:07:12.950Z,73.07